createdAt,value
2023-02-22T00:00:44.342Z,6.40
2023-02-22T00:05:47.429Z,8.70
2023-02-22T00:10:55.335Z,6.93
2023-02-22T00:15:58.616Z,5.30
2023-02-22T00:21:01.425Z,4.40
2023-02-22T00:26:03.009Z,4.30
2023-02-22T00:31:09.447Z,4.30
2023-02-22T00:36:12.710Z,3.45
2023-02-22T00:41:14.722Z,3.50
2023-02-22T00:46:16.767Z,3.38
2023-02-22T00:51:18.833Z,3.45
2023-02-22T00:56:20.870Z,3.25
2023-02-22T01:01:24.104Z,3.80
2023-02-22T01:06:25.901Z,3.65
2023-02-22T01:11:27.768Z,3.95
2023-02-22T01:16:29.419Z,4.85
2023-02-22T01:21:31.132Z,7.05
2023-02-22T01:26:32.678Z,7.45
2023-02-22T01:31:34.269Z,7.93
2023-02-22T01:36:35.888Z,8.00
2023-02-22T01:41:38.983Z,7.75
2023-02-22T01:46:40.631Z,7.07
2023-02-22T01:51:47.612Z,8.20
2023-02-22T01:57:15.610Z,7.85
2023-02-22T02:02:18.930Z,9.48
2023-02-22T02:07:22.690Z,9.27
2023-02-22T02:12:31.356Z,9.55
2023-02-22T02:17:34.467Z,9.65
2023-02-22T02:22:42.756Z,9.70
2023-02-22T02:28:03.760Z,11.02
2023-02-22T02:33:18.610Z,11.70
2023-02-22T02:38:32.187Z,10.45
2023-02-22T02:43:42.866Z,10.50
2023-02-22T02:48:54.757Z,10.32
2023-02-22T02:53:59.599Z,10.55
2023-02-22T02:59:01.160Z,9.35
2023-02-22T03:04:16.658Z,9.80
2023-02-22T03:09:40.312Z,9.80
2023-02-22T03:14:44.857Z,10.00
2023-02-22T03:20:22.275Z,10.68
2023-02-22T03:25:48.440Z,10.00
2023-02-22T03:30:56.862Z,10.48
2023-02-22T03:41:06.562Z,10.68
2023-02-22T03:46:10.387Z,10.63
2023-02-22T03:51:17.371Z,10.75
2023-02-22T03:56:28.900Z,10.27
2023-02-22T04:01:30.567Z,10.43
2023-02-22T04:06:32.305Z,10.57
2023-02-22T04:11:35.895Z,10.13
2023-02-22T04:16:37.417Z,10.35
2023-02-22T04:21:42.689Z,10.95
2023-02-22T04:26:50.949Z,9.98
2023-02-22T04:31:53.736Z,11.00
2023-02-22T04:36:55.492Z,11.00
2023-02-22T04:41:57.323Z,11.60
2023-02-22T04:46:59.391Z,10.85
2023-02-22T04:52:01.291Z,12.48
2023-02-22T04:57:10.407Z,12.18
2023-02-22T05:02:12.304Z,11.48
2023-02-22T05:07:13.790Z,11.98
2023-02-22T05:12:15.425Z,12.13
2023-02-22T05:17:16.961Z,11.75
2023-02-22T05:22:18.527Z,10.77
2023-02-22T05:27:20.333Z,11.60
2023-02-22T05:32:21.848Z,14.57
2023-02-22T05:37:23.426Z,12.57
2023-02-22T05:42:25.392Z,12.07
2023-02-22T05:47:27.108Z,12.60
2023-02-22T05:52:28.682Z,10.88
2023-02-22T05:57:30.759Z,10.80
2023-02-22T06:02:33.046Z,9.45
2023-02-22T06:07:34.563Z,9.15
2023-02-22T06:12:36.180Z,8.38
2023-02-22T06:17:39.513Z,8.63
2023-02-22T06:22:41.286Z,9.85
2023-02-22T06:27:42.923Z,10.15
2023-02-22T06:32:47.211Z,9.38
2023-02-22T06:37:48.833Z,9.77
2023-02-22T06:42:50.306Z,9.75
2023-02-22T06:47:51.885Z,10.05
2023-02-22T06:52:53.567Z,9.05
2023-02-22T06:57:55.229Z,8.88
2023-02-22T07:02:57.592Z,9.38
2023-02-22T07:08:05.374Z,10.70
2023-02-22T07:13:10.298Z,7.72
2023-02-22T07:18:16.035Z,8.65
2023-02-22T07:23:18.276Z,9.98
2023-02-22T07:28:19.891Z,9.70
2023-02-22T07:33:21.457Z,9.68
2023-02-22T07:38:23.038Z,9.70
2023-02-22T07:43:26.727Z,10.02
2023-02-22T07:48:30.248Z,10.68
2023-02-22T07:53:33.630Z,9.90
2023-02-22T07:58:35.447Z,10.40
2023-02-22T08:03:38.094Z,10.98
2023-02-22T08:08:40.517Z,11.68
2023-02-22T08:13:42.017Z,10.82
2023-02-22T08:18:43.564Z,10.98
2023-02-22T08:23:45.171Z,10.15
2023-02-22T08:28:46.759Z,11.20
2023-02-22T08:33:51.661Z,11.40
2023-02-22T08:38:53.201Z,9.75
2023-02-22T08:43:54.725Z,9.43
2023-02-22T08:48:56.254Z,10.00
2023-02-22T08:53:57.841Z,9.77
2023-02-22T08:58:59.484Z,10.23
2023-02-22T09:04:02.152Z,10.45
2023-02-22T09:09:03.734Z,10.23
2023-02-22T09:14:05.268Z,11.18
2023-02-22T09:19:06.805Z,9.93
2023-02-22T09:24:08.790Z,9.60
2023-02-22T09:29:10.509Z,10.18
2023-02-22T09:34:15.697Z,9.88
2023-02-22T09:39:19.365Z,9.38
2023-02-22T09:44:29.897Z,9.35
2023-02-22T09:49:39.038Z,8.95
2023-02-22T09:55:04.757Z,8.25
2023-02-22T10:00:13.619Z,8.07
2023-02-22T10:05:33.684Z,8.65
2023-02-22T10:10:41.049Z,8.80
2023-02-22T10:15:47.602Z,8.90
2023-02-22T10:20:57.623Z,8.07
2023-02-22T10:26:13.642Z,8.13
2023-02-22T10:31:25.102Z,8.20
2023-02-22T10:36:27.732Z,7.75
2023-02-22T10:41:31.873Z,7.25
2023-02-22T10:46:34.558Z,6.53
2023-02-22T10:51:36.475Z,7.60
2023-02-22T10:56:48.126Z,6.55
2023-02-22T11:01:50.015Z,6.35
2023-02-22T11:07:00.770Z,6.75
2023-02-22T11:12:11.635Z,6.63
2023-02-22T11:17:18.978Z,6.43
2023-02-22T11:22:24.811Z,6.72
2023-02-22T11:27:38.152Z,6.53
2023-02-22T11:32:56.518Z,6.05
2023-02-22T11:38:36.738Z,6.07
2023-02-22T11:43:38.251Z,6.13
2023-02-22T11:48:44.878Z,5.53
2023-02-22T11:54:01.160Z,5.68
2023-02-22T11:59:21.183Z,4.68
2023-02-22T12:04:33.417Z,5.10
2023-02-22T12:09:42.906Z,4.90
2023-02-22T12:14:58.549Z,5.10
2023-02-22T12:20:25.038Z,5.03
2023-02-22T12:25:31.372Z,4.80
2023-02-22T12:30:41.146Z,4.75
2023-02-22T12:35:50.476Z,4.35
2023-02-22T12:41:18.737Z,3.88
2023-02-22T12:52:12.433Z,3.85
2023-02-22T12:57:39.131Z,4.07
2023-02-22T13:02:47.715Z,3.70
2023-02-22T13:08:05.588Z,3.75
2023-02-22T13:13:35.964Z,4.07
2023-02-22T13:19:15.026Z,3.90
2023-02-22T13:24:28.280Z,3.85
2023-02-22T13:29:36.088Z,3.90
2023-02-22T13:34:49.746Z,3.88
2023-02-22T13:40:21.234Z,3.67
2023-02-22T13:46:07.790Z,3.72
2023-02-22T13:51:32.800Z,3.60
2023-02-22T13:56:34.650Z,3.42
2023-02-22T14:01:48.529Z,3.55
2023-02-22T14:06:51.202Z,3.60
2023-02-22T14:11:54.208Z,2.85
2023-02-22T14:17:25.224Z,3.22
2023-02-22T14:22:30.216Z,2.97
2023-02-22T14:27:41.417Z,2.85
2023-02-22T14:32:42.987Z,2.78
2023-02-22T14:37:51.444Z,2.58
2023-02-22T14:48:39.337Z,1.92
2023-02-22T14:59:18.447Z,1.92
2023-02-22T15:04:30.878Z,1.85
2023-02-22T15:09:37.496Z,1.35
2023-02-22T15:14:41.353Z,1.17
2023-02-22T15:19:43.123Z,1.30
2023-02-22T15:24:58.684Z,2.90
2023-02-22T15:30:04.597Z,1.25
2023-02-22T15:35:20.178Z,1.20
2023-02-22T15:40:21.859Z,1.15
2023-02-22T15:45:28.100Z,1.10
2023-02-22T15:50:30.818Z,1.63
2023-02-22T15:55:39.832Z,1.20
2023-02-22T16:00:49.959Z,0.90
2023-02-22T16:05:55.638Z,1.20
2023-02-22T16:11:05.594Z,0.90
2023-02-22T16:16:22.344Z,1.02
2023-02-22T16:21:23.864Z,1.17
2023-02-22T16:26:33.828Z,1.13
2023-02-22T16:31:40.039Z,1.17
2023-02-22T16:36:47.667Z,1.30
2023-02-22T16:41:50.929Z,1.42
2023-02-22T16:46:53.852Z,1.30
2023-02-22T16:51:59.766Z,1.40
2023-02-22T16:57:04.038Z,1.35
2023-02-22T17:02:07.629Z,1.45
2023-02-22T17:07:09.991Z,1.40
2023-02-22T17:12:11.592Z,1.70
2023-02-22T17:17:15.992Z,1.40
2023-02-22T17:22:20.254Z,1.60
2023-02-22T17:27:21.859Z,2.20
2023-02-22T17:32:23.460Z,2.40
2023-02-22T17:37:25.569Z,1.90
2023-02-22T17:42:27.094Z,2.38
2023-02-22T17:47:31.057Z,1.90
2023-02-22T17:52:32.971Z,1.83
2023-02-22T17:57:35.219Z,2.10
2023-02-22T18:02:36.763Z,1.90
2023-02-22T18:07:38.402Z,2.38
2023-02-22T18:12:40.838Z,3.10
2023-02-22T18:17:42.554Z,3.35
2023-02-22T18:22:44.664Z,3.30
2023-02-22T18:27:46.146Z,3.13
2023-02-22T18:32:47.826Z,3.33
2023-02-22T18:37:49.417Z,2.95
2023-02-22T18:42:51.004Z,6.20
2023-02-22T18:47:52.569Z,6.03
2023-02-22T18:52:55.359Z,3.38
2023-02-22T18:57:59.363Z,2.60
2023-02-22T19:03:01.252Z,2.40
2023-02-22T19:08:04.126Z,2.63
2023-02-22T19:13:10.674Z,2.97
2023-02-22T19:18:12.992Z,2.80
2023-02-22T19:23:16.870Z,3.20
2023-02-22T19:28:18.699Z,3.20
2023-02-22T19:33:20.918Z,3.47
2023-02-22T19:38:22.481Z,3.20
2023-02-22T19:43:24.118Z,4.15
2023-02-22T19:48:25.666Z,4.35
2023-02-22T19:53:27.161Z,3.63
2023-02-22T19:58:28.745Z,3.47
2023-02-22T20:03:34.936Z,3.78
2023-02-22T20:08:42.095Z,3.33
2023-02-22T20:13:43.868Z,3.10
2023-02-22T20:18:47.172Z,3.17
2023-02-22T20:23:49.116Z,3.03
2023-02-22T20:28:51.748Z,3.45
2023-02-22T20:33:55.940Z,3.58
2023-02-22T20:38:59.572Z,3.90
2023-02-22T20:44:02.802Z,3.60
2023-02-22T20:49:07.441Z,3.22
2023-02-22T20:54:12.016Z,3.95
2023-02-22T20:59:16.194Z,3.10
2023-02-22T21:04:20.273Z,3.65
2023-02-22T21:09:22.144Z,3.22
2023-02-22T21:14:25.055Z,3.40
2023-02-22T21:19:26.729Z,4.03
2023-02-22T21:24:29.022Z,3.67
2023-02-22T21:29:34.360Z,3.42
2023-02-22T21:34:36.606Z,3.90
2023-02-22T21:39:38.245Z,3.83
2023-02-22T21:44:40.125Z,4.05
2023-02-22T21:49:41.759Z,4.47
2023-02-22T21:54:43.400Z,4.70
2023-02-22T21:59:44.924Z,4.22
2023-02-22T22:04:46.508Z,3.60
2023-02-22T22:09:56.474Z,4.38
2023-02-22T22:14:58.657Z,4.40
2023-02-22T22:20:00.228Z,4.10
2023-02-22T22:25:03.386Z,4.50
2023-02-22T22:30:05.508Z,4.43
2023-02-22T22:35:14.519Z,4.65
2023-02-22T22:40:16.225Z,4.10
2023-02-22T22:45:18.103Z,4.43
2023-02-22T22:50:19.920Z,4.78
2023-02-22T22:55:24.228Z,4.80
2023-02-22T23:00:27.460Z,4.50
2023-02-22T23:05:29.344Z,5.03
2023-02-22T23:10:33.117Z,4.97
2023-02-22T23:15:34.747Z,5.00
2023-02-22T23:20:38.929Z,3.63
2023-02-22T23:25:43.838Z,24.58
2023-02-22T23:30:45.377Z,5.18
2023-02-22T23:35:49.901Z,42.95
2023-02-22T23:40:53.984Z,10.55
2023-02-22T23:45:57.218Z,3.60
2023-02-22T23:51:01.726Z,3.83
2023-02-22T23:56:09.851Z,4.15
